sensor_id;sensor_type;location;lat;lon;timestamp;temperature;humidity
2993;DHT22;1506;48.932;9.478;2024-03-02T00:00:28;4.40;99.90
2993;DHT22;1506;48.932;9.478;2024-03-02T00:02:56;4.50;99.90
2993;DHT22;1506;48.932;9.478;2024-03-02T00:05:23;4.40;99.90
2993;DHT22;1506;48.932;9.478;2024-03-02T00:07:57;4.50;99.90
2993;DHT22;1506;48.932;9.478;2024-03-02T00:10:36;4.40;99.90
2993;DHT22;1506;48.932;9.478;2024-03-02T00:13:07;4.40;99.90
2993;DHT22;1506;48.932;9.478;2024-03-02T00:15:47;4.40;99.90
2993;DHT22;1506;48.932;9.478;2024-03-02T00:18:24;4.40;99.90
2993;DHT22;1506;48.932;9.478;2024-03-02T00:20:55;4.60;99.90
2993;DHT22;1506;48.932;9.478;2024-03-02T00:23:26;4.30;99.90
2993;DHT22;1506;48.932;9.478;2024-03-02T00:25:58;4.10;99.90
2993;DHT22;1506;48.932;9.478;2024-03-02T00:28:34;4.20;99.90
2993;DHT22;1506;48.932;9.478;2024-03-02T00:31:09;4.30;99.90
2993;DHT22;1506;48.932;9.478;2024-03-02T00:33:44;4.40;99.90
2993;DHT22;1506;48.932;9.478;2024-03-02T00:36:15;4.20;99.90
2993;DHT22;1506;48.932;9.478;2024-03-02T00:38:48;4.30;99.90
2993;DHT22;1506;48.932;9.478;2024-03-02T00:41:24;4.30;99.90
2993;DHT22;1506;48.932;9.478;2024-03-02T00:44:04;4.40;99.90
2993;DHT22;1506;48.932;9.478;2024-03-02T00:46:40;4.30;99.90
2993;DHT22;1506;48.932;9.478;2024-03-02T00:51:38;4.30;99.90
2993;DHT22;1506;48.932;9.478;2024-03-02T00:54:08;4.20;99.90
2993;DHT22;1506;48.932;9.478;2024-03-02T00:56:35;4.20;99.90
2993;DHT22;1506;48.932;9.478;2024-03-02T00:59:03;4.20;99.90
2993;DHT22;1506;48.932;9.478;2024-03-02T01:01:29;4.30;99.90
2993;DHT22;1506;48.932;9.478;2024-03-02T01:03:56;4.10;99.90
2993;DHT22;1506;48.932;9.478;2024-03-02T01:06:24;3.80;99.90
2993;DHT22;1506;48.932;9.478;2024-03-02T01:08:51;4.00;99.90
2993;DHT22;1506;48.932;9.478;2024-03-02T01:11:20;4.00;99.90
2993;DHT22;1506;48.932;9.478;2024-03-02T01:13:50;4.30;99.90
2993;DHT22;1506;48.932;9.478;2024-03-02T01:16:19;4.00;99.90
2993;DHT22;1506;48.932;9.478;2024-03-02T01:18:46;3.90;99.90
2993;DHT22;1506;48.932;9.478;2024-03-02T01:21:13;3.80;99.90
2993;DHT22;1506;48.932;9.478;2024-03-02T01:23:41;3.70;99.90
2993;DHT22;1506;48.932;9.478;2024-03-02T01:26:08;3.70;99.90
2993;DHT22;1506;48.932;9.478;2024-03-02T01:28:35;3.60;99.90
2993;DHT22;1506;48.932;9.478;2024-03-02T01:31:02;3.70;99.90
2993;DHT22;1506;48.932;9.478;2024-03-02T01:33:29;3.90;99.90
2993;DHT22;1506;48.932;9.478;2024-03-02T01:35:56;3.90;99.90
2993;DHT22;1506;48.932;9.478;2024-03-02T01:38:23;4.00;99.90
2993;DHT22;1506;48.932;9.478;2024-03-02T01:40:50;4.00;99.90
2993;DHT22;1506;48.932;9.478;2024-03-02T01:43:18;4.00;99.90
2993;DHT22;1506;48.932;9.478;2024-03-02T01:45:46;4.10;99.90
2993;DHT22;1506;48.932;9.478;2024-03-02T01:48:13;4.00;99.90
2993;DHT22;1506;48.932;9.478;2024-03-02T01:50:40;4.20;99.90
2993;DHT22;1506;48.932;9.478;2024-03-02T01:53:08;4.10;99.90
2993;DHT22;1506;48.932;9.478;2024-03-02T01:55:36;4.30;99.90
2993;DHT22;1506;48.932;9.478;2024-03-02T01:58:03;4.30;99.90
2993;DHT22;1506;48.932;9.478;2024-03-02T02:00:30;4.20;99.90
2993;DHT22;1506;48.932;9.478;2024-03-02T02:02:57;4.20;99.90
2993;DHT22;1506;48.932;9.478;2024-03-02T02:05:24;3.90;99.90
2993;DHT22;1506;48.932;9.478;2024-03-02T02:07:52;3.80;99.90
2993;DHT22;1506;48.932;9.478;2024-03-02T02:10:19;3.70;99.90
2993;DHT22;1506;48.932;9.478;2024-03-02T02:12:46;3.80;99.90
2993;DHT22;1506;48.932;9.478;2024-03-02T02:15:29;3.90;99.90
2993;DHT22;1506;48.932;9.478;2024-03-02T02:17:58;3.90;99.90
2993;DHT22;1506;48.932;9.478;2024-03-02T02:20:26;3.90;99.90
2993;DHT22;1506;48.932;9.478;2024-03-02T02:23:03;4.00;99.90
2993;DHT22;1506;48.932;9.478;2024-03-02T02:25:32;3.80;99.90
2993;DHT22;1506;48.932;9.478;2024-03-02T02:27:59;3.70;99.90
2993;DHT22;1506;48.932;9.478;2024-03-02T02:30:29;3.60;99.90
2993;DHT22;1506;48.932;9.478;2024-03-02T02:32:56;3.70;99.90
2993;DHT22;1506;48.932;9.478;2024-03-02T02:35:23;3.60;99.90
2993;DHT22;1506;48.932;9.478;2024-03-02T02:37:54;3.50;99.90
2993;DHT22;1506;48.932;9.478;2024-03-02T02:40:22;3.40;99.90
2993;DHT22;1506;48.932;9.478;2024-03-02T02:42:50;3.40;99.90
2993;DHT22;1506;48.932;9.478;2024-03-02T02:45:19;3.60;99.90
2993;DHT22;1506;48.932;9.478;2024-03-02T02:47:47;3.70;99.90
2993;DHT22;1506;48.932;9.478;2024-03-02T02:50:14;3.60;99.90
2993;DHT22;1506;48.932;9.478;2024-03-02T02:52:42;3.70;99.90
2993;DHT22;1506;48.932;9.478;2024-03-02T02:55:11;3.70;99.90
2993;DHT22;1506;48.932;9.478;2024-03-02T02:57:42;3.60;99.90
2993;DHT22;1506;48.932;9.478;2024-03-02T03:00:12;3.60;99.90
2993;DHT22;1506;48.932;9.478;2024-03-02T03:02:48;3.70;99.90
2993;DHT22;1506;48.932;9.478;2024-03-02T03:05:18;3.40;99.90
2993;DHT22;1506;48.932;9.478;2024-03-02T03:07:45;3.50;99.90
2993;DHT22;1506;48.932;9.478;2024-03-02T03:10:15;3.30;99.90
2993;DHT22;1506;48.932;9.478;2024-03-02T03:12:43;3.50;99.90
2993;DHT22;1506;48.932;9.478;2024-03-02T03:15:11;3.30;99.90
2993;DHT22;1506;48.932;9.478;2024-03-02T03:17:40;3.50;99.90
2993;DHT22;1506;48.932;9.478;2024-03-02T03:20:07;3.60;99.90
2993;DHT22;1506;48.932;9.478;2024-03-02T03:22:38;3.70;99.90
2993;DHT22;1506;48.932;9.478;2024-03-02T03:25:05;3.80;99.90
2993;DHT22;1506;48.932;9.478;2024-03-02T03:27:35;3.80;99.90
2993;DHT22;1506;48.932;9.478;2024-03-02T03:30:03;3.80;99.90
2993;DHT22;1506;48.932;9.478;2024-03-02T03:32:30;3.70;99.90
2993;DHT22;1506;48.932;9.478;2024-03-02T03:34:57;3.70;99.90
2993;DHT22;1506;48.932;9.478;2024-03-02T03:37:24;3.90;99.90
2993;DHT22;1506;48.932;9.478;2024-03-02T03:39:53;3.40;99.90
2993;DHT22;1506;48.932;9.478;2024-03-02T03:42:20;3.50;99.90
2993;DHT22;1506;48.932;9.478;2024-03-02T03:44:48;3.50;99.90
2993;DHT22;1506;48.932;9.478;2024-03-02T03:47:15;3.50;99.90
2993;DHT22;1506;48.932;9.478;2024-03-02T03:49:42;3.30;99.90
2993;DHT22;1506;48.932;9.478;2024-03-02T03:52:09;3.40;99.90
2993;DHT22;1506;48.932;9.478;2024-03-02T03:54:36;3.50;99.90
2993;DHT22;1506;48.932;9.478;2024-03-02T03:57:05;3.40;99.90
2993;DHT22;1506;48.932;9.478;2024-03-02T03:59:32;3.20;99.90
2993;DHT22;1506;48.932;9.478;2024-03-02T04:02:00;3.20;99.90
2993;DHT22;1506;48.932;9.478;2024-03-02T04:04:27;3.30;99.90
2993;DHT22;1506;48.932;9.478;2024-03-02T04:06:54;3.20;99.90
2993;DHT22;1506;48.932;9.478;2024-03-02T04:09:21;3.20;99.90
2993;DHT22;1506;48.932;9.478;2024-03-02T04:11:48;3.30;99.90
2993;DHT22;1506;48.932;9.478;2024-03-02T04:14:15;3.20;99.90
2993;DHT22;1506;48.932;9.478;2024-03-02T04:16:43;3.20;99.90
2993;DHT22;1506;48.932;9.478;2024-03-02T04:19:10;3.20;99.90
2993;DHT22;1506;48.932;9.478;2024-03-02T04:21:37;3.10;99.90
2993;DHT22;1506;48.932;9.478;2024-03-02T04:24:04;3.10;99.90
2993;DHT22;1506;48.932;9.478;2024-03-02T04:26:31;3.10;99.90
2993;DHT22;1506;48.932;9.478;2024-03-02T04:28:58;3.10;99.90
2993;DHT22;1506;48.932;9.478;2024-03-02T04:31:25;3.10;99.90
2993;DHT22;1506;48.932;9.478;2024-03-02T04:33:52;3.10;99.90
2993;DHT22;1506;48.932;9.478;2024-03-02T04:36:19;3.10;99.90
2993;DHT22;1506;48.932;9.478;2024-03-02T04:38:46;3.10;99.90
2993;DHT22;1506;48.932;9.478;2024-03-02T04:41:13;3.00;99.90
2993;DHT22;1506;48.932;9.478;2024-03-02T04:43:40;3.00;99.90
2993;DHT22;1506;48.932;9.478;2024-03-02T04:46:07;2.90;99.90
2993;DHT22;1506;48.932;9.478;2024-03-02T04:48:34;2.90;99.90
2993;DHT22;1506;48.932;9.478;2024-03-02T04:51:02;3.00;99.90
2993;DHT22;1506;48.932;9.478;2024-03-02T04:53:29;2.90;99.90
2993;DHT22;1506;48.932;9.478;2024-03-02T04:55:56;3.00;99.90
2993;DHT22;1506;48.932;9.478;2024-03-02T04:58:41;2.90;99.90
2993;DHT22;1506;48.932;9.478;2024-03-02T05:01:08;2.80;99.90
2993;DHT22;1506;48.932;9.478;2024-03-02T05:03:35;2.80;99.90
2993;DHT22;1506;48.932;9.478;2024-03-02T05:06:02;2.80;99.90
2993;DHT22;1506;48.932;9.478;2024-03-02T05:08:30;2.80;99.90
2993;DHT22;1506;48.932;9.478;2024-03-02T05:10:57;2.80;99.90
2993;DHT22;1506;48.932;9.478;2024-03-02T05:13:44;3.00;99.90
2993;DHT22;1506;48.932;9.478;2024-03-02T05:16:11;2.90;99.90
2993;DHT22;1506;48.932;9.478;2024-03-02T05:18:38;2.70;99.90
2993;DHT22;1506;48.932;9.478;2024-03-02T05:21:05;2.70;99.90
2993;DHT22;1506;48.932;9.478;2024-03-02T05:23:32;2.60;99.90
2993;DHT22;1506;48.932;9.478;2024-03-02T05:25:59;2.60;99.90
2993;DHT22;1506;48.932;9.478;2024-03-02T05:28:27;2.60;99.90
2993;DHT22;1506;48.932;9.478;2024-03-02T05:30:54;2.50;99.90
2993;DHT22;1506;48.932;9.478;2024-03-02T05:33:21;2.60;99.90
2993;DHT22;1506;48.932;9.478;2024-03-02T05:35:49;2.60;99.90
2993;DHT22;1506;48.932;9.478;2024-03-02T05:38:19;2.60;99.90
2993;DHT22;1506;48.932;9.478;2024-03-02T05:40:46;2.60;99.90
2993;DHT22;1506;48.932;9.478;2024-03-02T05:43:13;2.50;99.90
2993;DHT22;1506;48.932;9.478;2024-03-02T05:45:40;2.60;99.90
2993;DHT22;1506;48.932;9.478;2024-03-02T05:48:07;2.40;99.90
2993;DHT22;1506;48.932;9.478;2024-03-02T05:50:35;2.40;99.90
2993;DHT22;1506;48.932;9.478;2024-03-02T05:53:02;2.50;99.90
2993;DHT22;1506;48.932;9.478;2024-03-02T05:55:29;2.50;99.90
2993;DHT22;1506;48.932;9.478;2024-03-02T05:57:56;2.40;99.90
2993;DHT22;1506;48.932;9.478;2024-03-02T06:00:33;2.20;99.90
2993;DHT22;1506;48.932;9.478;2024-03-02T06:03:00;2.30;99.90
2993;DHT22;1506;48.932;9.478;2024-03-02T06:05:27;2.30;99.90
2993;DHT22;1506;48.932;9.478;2024-03-02T06:07:54;2.20;99.90
2993;DHT22;1506;48.932;9.478;2024-03-02T06:10:21;2.20;99.90
2993;DHT22;1506;48.932;9.478;2024-03-02T06:12:48;2.20;99.90
2993;DHT22;1506;48.932;9.478;2024-03-02T06:15:15;2.10;99.90
2993;DHT22;1506;48.932;9.478;2024-03-02T06:17:44;2.00;99.90
2993;DHT22;1506;48.932;9.478;2024-03-02T06:20:11;2.00;99.90
2993;DHT22;1506;48.932;9.478;2024-03-02T06:22:38;2.20;99.90
2993;DHT22;1506;48.932;9.478;2024-03-02T06:25:05;2.30;99.90
2993;DHT22;1506;48.932;9.478;2024-03-02T06:27:33;2.30;99.90
2993;DHT22;1506;48.932;9.478;2024-03-02T06:30:00;2.20;99.90
2993;DHT22;1506;48.932;9.478;2024-03-02T06:32:26;2.40;99.90
2993;DHT22;1506;48.932;9.478;2024-03-02T06:34:53;2.30;99.90
2993;DHT22;1506;48.932;9.478;2024-03-02T06:37:20;2.40;99.90
2993;DHT22;1506;48.932;9.478;2024-03-02T06:39:47;2.30;99.90
2993;DHT22;1506;48.932;9.478;2024-03-02T06:42:14;2.40;99.90
2993;DHT22;1506;48.932;9.478;2024-03-02T06:44:41;2.50;99.90
2993;DHT22;1506;48.932;9.478;2024-03-02T06:47:08;2.60;99.90
2993;DHT22;1506;48.932;9.478;2024-03-02T06:49:36;2.60;99.90
2993;DHT22;1506;48.932;9.478;2024-03-02T06:52:03;2.50;99.90
2993;DHT22;1506;48.932;9.478;2024-03-02T06:54:30;2.50;99.90
2993;DHT22;1506;48.932;9.478;2024-03-02T06:56:57;2.70;99.90
2993;DHT22;1506;48.932;9.478;2024-03-02T06:59:24;2.70;99.90
2993;DHT22;1506;48.932;9.478;2024-03-02T07:01:51;2.90;99.90
2993;DHT22;1506;48.932;9.478;2024-03-02T07:04:18;2.90;99.90
2993;DHT22;1506;48.932;9.478;2024-03-02T07:06:46;2.80;99.90
2993;DHT22;1506;48.932;9.478;2024-03-02T07:09:13;3.00;99.90
2993;DHT22;1506;48.932;9.478;2024-03-02T07:11:40;2.90;99.90
2993;DHT22;1506;48.932;9.478;2024-03-02T07:14:07;3.10;99.90
2993;DHT22;1506;48.932;9.478;2024-03-02T07:16:37;3.10;99.90
2993;DHT22;1506;48.932;9.478;2024-03-02T07:19:05;3.20;99.90
2993;DHT22;1506;48.932;9.478;2024-03-02T07:21:33;3.30;99.90
2993;DHT22;1506;48.932;9.478;2024-03-02T07:24:00;3.50;99.90
2993;DHT22;1506;48.932;9.478;2024-03-02T07:26:30;3.60;99.90
2993;DHT22;1506;48.932;9.478;2024-03-02T07:29:01;3.70;99.90
2993;DHT22;1506;48.932;9.478;2024-03-02T07:31:28;3.80;99.90
2993;DHT22;1506;48.932;9.478;2024-03-02T07:33:55;3.80;99.90
2993;DHT22;1506;48.932;9.478;2024-03-02T07:36:22;4.10;99.90
2993;DHT22;1506;48.932;9.478;2024-03-02T07:38:49;4.10;99.90
2993;DHT22;1506;48.932;9.478;2024-03-02T07:41:17;4.20;99.90
2993;DHT22;1506;48.932;9.478;2024-03-02T07:43:44;4.40;99.90
2993;DHT22;1506;48.932;9.478;2024-03-02T07:46:11;4.70;99.90
2993;DHT22;1506;48.932;9.478;2024-03-02T07:48:39;4.90;99.90
2993;DHT22;1506;48.932;9.478;2024-03-02T07:51:06;5.30;99.90
2993;DHT22;1506;48.932;9.478;2024-03-02T07:53:33;5.60;99.90
2993;DHT22;1506;48.932;9.478;2024-03-02T07:56:01;6.00;99.90
2993;DHT22;1506;48.932;9.478;2024-03-02T07:58:29;6.40;99.90
2993;DHT22;1506;48.932;9.478;2024-03-02T08:00:57;6.70;99.90
2993;DHT22;1506;48.932;9.478;2024-03-02T08:03:27;7.00;99.90
2993;DHT22;1506;48.932;9.478;2024-03-02T08:05:54;7.30;99.90
2993;DHT22;1506;48.932;9.478;2024-03-02T08:08:21;7.60;99.90
2993;DHT22;1506;48.932;9.478;2024-03-02T08:10:48;8.10;99.90
2993;DHT22;1506;48.932;9.478;2024-03-02T08:13:16;8.50;99.90
2993;DHT22;1506;48.932;9.478;2024-03-02T08:15:43;9.00;99.90
2993;DHT22;1506;48.932;9.478;2024-03-02T08:18:10;9.20;99.90
2993;DHT22;1506;48.932;9.478;2024-03-02T08:20:37;9.70;99.90
2993;DHT22;1506;48.932;9.478;2024-03-02T08:23:05;10.10;99.90
2993;DHT22;1506;48.932;9.478;2024-03-02T08:25:32;10.00;1.00
2993;DHT22;1506;48.932;9.478;2024-03-02T08:27:59;9.70;1.00
2993;DHT22;1506;48.932;9.478;2024-03-02T08:30:26;9.40;1.00
2993;DHT22;1506;48.932;9.478;2024-03-02T08:32:53;9.10;99.90
2993;DHT22;1506;48.932;9.478;2024-03-02T08:35:20;9.10;1.00
2993;DHT22;1506;48.932;9.478;2024-03-02T08:37:49;9.50;1.00
2993;DHT22;1506;48.932;9.478;2024-03-02T08:40:16;9.60;1.00
2993;DHT22;1506;48.932;9.478;2024-03-02T08:42:45;9.80;1.00
2993;DHT22;1506;48.932;9.478;2024-03-02T08:45:13;9.60;1.00
2993;DHT22;1506;48.932;9.478;2024-03-02T08:47:41;9.40;1.00
2993;DHT22;1506;48.932;9.478;2024-03-02T08:50:08;9.50;1.00
2993;DHT22;1506;48.932;9.478;2024-03-02T08:52:35;9.50;1.00
2993;DHT22;1506;48.932;9.478;2024-03-02T08:55:03;9.30;1.00
2993;DHT22;1506;48.932;9.478;2024-03-02T08:57:31;9.30;1.00
2993;DHT22;1506;48.932;9.478;2024-03-02T08:59:59;9.20;1.00
2993;DHT22;1506;48.932;9.478;2024-03-02T09:02:26;9.20;1.00
2993;DHT22;1506;48.932;9.478;2024-03-02T09:04:53;9.10;1.00
2993;DHT22;1506;48.932;9.478;2024-03-02T09:07:20;9.10;99.90
2993;DHT22;1506;48.932;9.478;2024-03-02T09:09:47;9.30;1.00
2993;DHT22;1506;48.932;9.478;2024-03-02T09:12:15;9.40;99.90
2993;DHT22;1506;48.932;9.478;2024-03-02T09:14:42;9.50;99.90
2993;DHT22;1506;48.932;9.478;2024-03-02T09:17:09;9.50;1.00
2993;DHT22;1506;48.932;9.478;2024-03-02T09:19:38;9.70;99.90
2993;DHT22;1506;48.932;9.478;2024-03-02T09:22:05;10.20;99.90
2993;DHT22;1506;48.932;9.478;2024-03-02T09:24:33;10.80;48.80
2993;DHT22;1506;48.932;9.478;2024-03-02T09:27:00;11.40;99.90
2993;DHT22;1506;48.932;9.478;2024-03-02T09:29:27;12.20;1.00
2993;DHT22;1506;48.932;9.478;2024-03-02T09:31:54;13.20;1.00
2993;DHT22;1506;48.932;9.478;2024-03-02T09:34:22;13.80;99.90
2993;DHT22;1506;48.932;9.478;2024-03-02T09:36:51;14.20;1.00
2993;DHT22;1506;48.932;9.478;2024-03-02T09:39:19;15.20;1.00
2993;DHT22;1506;48.932;9.478;2024-03-02T09:41:47;16.00;1.00
2993;DHT22;1506;48.932;9.478;2024-03-02T09:44:15;16.90;99.90
2993;DHT22;1506;48.932;9.478;2024-03-02T09:46:42;17.70;99.90
2993;DHT22;1506;48.932;9.478;2024-03-02T09:49:11;18.70;99.90
2993;DHT22;1506;48.932;9.478;2024-03-02T09:51:38;19.30;99.90
2993;DHT22;1506;48.932;9.478;2024-03-02T09:54:08;19.10;78.90
2993;DHT22;1506;48.932;9.478;2024-03-02T09:56:47;18.70;56.00
2993;DHT22;1506;48.932;9.478;2024-03-02T09:59:14;16.40;72.80
2993;DHT22;1506;48.932;9.478;2024-03-02T10:02:03;16.40;91.20
2993;DHT22;1506;48.932;9.478;2024-03-02T10:04:30;16.00;43.20
2993;DHT22;1506;48.932;9.478;2024-03-02T10:07:09;15.90;44.00
2993;DHT22;1506;48.932;9.478;2024-03-02T10:09:37;15.60;50.00
2993;DHT22;1506;48.932;9.478;2024-03-02T10:12:07;14.90;45.20
2993;DHT22;1506;48.932;9.478;2024-03-02T10:14:34;14.80;42.70
2993;DHT22;1506;48.932;9.478;2024-03-02T10:17:06;15.20;65.70
2993;DHT22;1506;48.932;9.478;2024-03-02T10:19:34;15.20;34.40
2993;DHT22;1506;48.932;9.478;2024-03-02T10:22:03;14.90;45.60
2993;DHT22;1506;48.932;9.478;2024-03-02T10:24:38;15.00;66.60
2993;DHT22;1506;48.932;9.478;2024-03-02T10:27:27;15.50;29.00
2993;DHT22;1506;48.932;9.478;2024-03-02T10:29:54;15.00;31.70
2993;DHT22;1506;48.932;9.478;2024-03-02T10:32:22;14.90;42.30
2993;DHT22;1506;48.932;9.478;2024-03-02T10:34:50;14.90;41.00
2993;DHT22;1506;48.932;9.478;2024-03-02T10:37:17;15.20;44.30
2993;DHT22;1506;48.932;9.478;2024-03-02T10:39:46;15.10;17.00
2993;DHT22;1506;48.932;9.478;2024-03-02T10:42:14;15.20;29.60
2993;DHT22;1506;48.932;9.478;2024-03-02T10:44:42;15.70;23.90
2993;DHT22;1506;48.932;9.478;2024-03-02T10:47:12;15.90;23.30
2993;DHT22;1506;48.932;9.478;2024-03-02T10:49:42;16.10;37.70
2993;DHT22;1506;48.932;9.478;2024-03-02T10:52:11;16.50;34.60
2993;DHT22;1506;48.932;9.478;2024-03-02T10:54:38;16.20;13.70
2993;DHT22;1506;48.932;9.478;2024-03-02T10:57:07;15.90;24.30
2993;DHT22;1506;48.932;9.478;2024-03-02T10:59:56;16.70;23.50
2993;DHT22;1506;48.932;9.478;2024-03-02T11:02:24;16.10;9.60
2993;DHT22;1506;48.932;9.478;2024-03-02T11:04:55;15.80;12.10
2993;DHT22;1506;48.932;9.478;2024-03-02T11:07:23;16.60;20.40
2993;DHT22;1506;48.932;9.478;2024-03-02T11:09:56;17.60;13.90
2993;DHT22;1506;48.932;9.478;2024-03-02T11:12:44;17.50;5.90
2993;DHT22;1506;48.932;9.478;2024-03-02T11:15:18;17.30;1.00
2993;DHT22;1506;48.932;9.478;2024-03-02T11:17:49;17.40;13.30
2993;DHT22;1506;48.932;9.478;2024-03-02T11:20:16;17.80;9.00
2993;DHT22;1506;48.932;9.478;2024-03-02T11:22:44;17.40;1.70
2993;DHT22;1506;48.932;9.478;2024-03-02T11:25:25;17.50;10.60
2993;DHT22;1506;48.932;9.478;2024-03-02T11:33:02;17.50;17.70
2993;DHT22;1506;48.932;9.478;2024-03-02T11:35:43;17.90;1.00
2993;DHT22;1506;48.932;9.478;2024-03-02T11:38:10;17.80;18.40
2993;DHT22;1506;48.932;9.478;2024-03-02T11:40:41;18.30;10.60
2993;DHT22;1506;48.932;9.478;2024-03-02T11:43:09;18.40;19.00
2993;DHT22;1506;48.932;9.478;2024-03-02T11:45:37;18.80;20.70
2993;DHT22;1506;48.932;9.478;2024-03-02T11:48:14;18.10;5.10
2993;DHT22;1506;48.932;9.478;2024-03-02T11:50:49;18.00;19.00
2993;DHT22;1506;48.932;9.478;2024-03-02T11:53:16;17.80;10.30
2993;DHT22;1506;48.932;9.478;2024-03-02T11:55:45;18.50;47.20
2993;DHT22;1506;48.932;9.478;2024-03-02T11:58:15;18.30;35.60
2993;DHT22;1506;48.932;9.478;2024-03-02T12:00:51;18.30;40.20
2993;DHT22;1506;48.932;9.478;2024-03-02T12:03:21;17.90;47.00
2993;DHT22;1506;48.932;9.478;2024-03-02T12:05:50;17.70;99.90
2993;DHT22;1506;48.932;9.478;2024-03-02T12:08:17;18.70;99.90
2993;DHT22;1506;48.932;9.478;2024-03-02T12:11:00;18.50;97.90
2993;DHT22;1506;48.932;9.478;2024-03-02T12:13:29;18.70;99.90
2993;DHT22;1506;48.932;9.478;2024-03-02T12:15:56;19.70;99.90
2993;DHT22;1506;48.932;9.478;2024-03-02T12:18:24;20.30;99.90
2993;DHT22;1506;48.932;9.478;2024-03-02T12:20:53;20.70;99.90
2993;DHT22;1506;48.932;9.478;2024-03-02T12:23:24;20.30;99.90
2993;DHT22;1506;48.932;9.478;2024-03-02T12:25:51;20.00;99.90
2993;DHT22;1506;48.932;9.478;2024-03-02T12:28:19;19.80;99.90
2993;DHT22;1506;48.932;9.478;2024-03-02T12:30:46;19.40;99.90
2993;DHT22;1506;48.932;9.478;2024-03-02T12:33:15;19.80;99.90
2993;DHT22;1506;48.932;9.478;2024-03-02T12:35:43;19.40;99.90
2993;DHT22;1506;48.932;9.478;2024-03-02T12:38:10;19.00;99.90
2993;DHT22;1506;48.932;9.478;2024-03-02T12:40:38;19.10;99.90
2993;DHT22;1506;48.932;9.478;2024-03-02T12:43:06;17.60;99.90
2993;DHT22;1506;48.932;9.478;2024-03-02T12:45:34;17.50;99.90
2993;DHT22;1506;48.932;9.478;2024-03-02T12:48:02;17.60;99.90
2993;DHT22;1506;48.932;9.478;2024-03-02T12:50:31;17.70;99.90
2993;DHT22;1506;48.932;9.478;2024-03-02T12:52:58;18.00;99.90
2993;DHT22;1506;48.932;9.478;2024-03-02T12:55:25;18.20;99.90
2993;DHT22;1506;48.932;9.478;2024-03-02T12:57:52;17.50;99.90
2993;DHT22;1506;48.932;9.478;2024-03-02T13:00:21;17.30;99.90
2993;DHT22;1506;48.932;9.478;2024-03-02T13:02:50;18.00;99.90
2993;DHT22;1506;48.932;9.478;2024-03-02T13:05:19;17.60;99.90
2993;DHT22;1506;48.932;9.478;2024-03-02T13:07:47;18.30;99.90
2993;DHT22;1506;48.932;9.478;2024-03-02T13:10:15;18.30;99.90
2993;DHT22;1506;48.932;9.478;2024-03-02T13:12:42;18.20;99.90
2993;DHT22;1506;48.932;9.478;2024-03-02T13:15:10;18.60;99.90
2993;DHT22;1506;48.932;9.478;2024-03-02T13:17:44;18.00;99.90
2993;DHT22;1506;48.932;9.478;2024-03-02T13:20:12;18.60;99.90
2993;DHT22;1506;48.932;9.478;2024-03-02T13:22:41;17.90;99.90
2993;DHT22;1506;48.932;9.478;2024-03-02T13:25:09;17.40;99.90
2993;DHT22;1506;48.932;9.478;2024-03-02T13:27:38;18.00;99.90
2993;DHT22;1506;48.932;9.478;2024-03-02T13:30:06;17.80;99.90
2993;DHT22;1506;48.932;9.478;2024-03-02T13:32:35;18.20;99.90
2993;DHT22;1506;48.932;9.478;2024-03-02T13:35:02;18.30;99.90
2993;DHT22;1506;48.932;9.478;2024-03-02T13:37:30;18.00;99.90
2993;DHT22;1506;48.932;9.478;2024-03-02T13:39:57;17.40;99.90
2993;DHT22;1506;48.932;9.478;2024-03-02T13:42:24;17.30;99.90
2993;DHT22;1506;48.932;9.478;2024-03-02T13:44:52;17.40;99.90
2993;DHT22;1506;48.932;9.478;2024-03-02T13:47:19;17.70;99.90
2993;DHT22;1506;48.932;9.478;2024-03-02T13:49:48;17.90;99.90
2993;DHT22;1506;48.932;9.478;2024-03-02T13:52:16;17.70;99.90
2993;DHT22;1506;48.932;9.478;2024-03-02T13:54:47;17.80;99.90
2993;DHT22;1506;48.932;9.478;2024-03-02T13:57:14;17.80;99.90
2993;DHT22;1506;48.932;9.478;2024-03-02T13:59:42;17.10;99.90
2993;DHT22;1506;48.932;9.478;2024-03-02T14:02:11;17.00;99.90
2993;DHT22;1506;48.932;9.478;2024-03-02T14:04:39;17.60;99.90
2993;DHT22;1506;48.932;9.478;2024-03-02T14:07:06;17.60;99.90
2993;DHT22;1506;48.932;9.478;2024-03-02T14:09:35;17.10;99.90
2993;DHT22;1506;48.932;9.478;2024-03-02T14:12:04;17.30;99.90
2993;DHT22;1506;48.932;9.478;2024-03-02T14:14:33;16.90;99.90
2993;DHT22;1506;48.932;9.478;2024-03-02T14:17:05;16.90;99.90
2993;DHT22;1506;48.932;9.478;2024-03-02T14:19:36;16.80;99.90
2993;DHT22;1506;48.932;9.478;2024-03-02T14:22:03;16.60;99.90
2993;DHT22;1506;48.932;9.478;2024-03-02T14:24:32;16.50;99.90
2993;DHT22;1506;48.932;9.478;2024-03-02T14:26:59;16.50;99.90
2993;DHT22;1506;48.932;9.478;2024-03-02T14:29:45;16.50;99.90
2993;DHT22;1506;48.932;9.478;2024-03-02T14:32:12;16.30;99.90
2993;DHT22;1506;48.932;9.478;2024-03-02T14:34:39;16.30;97.10
2993;DHT22;1506;48.932;9.478;2024-03-02T14:37:06;16.20;97.80
2993;DHT22;1506;48.932;9.478;2024-03-02T14:39:34;16.20;98.40
2993;DHT22;1506;48.932;9.478;2024-03-02T14:42:02;16.20;98.30
2993;DHT22;1506;48.932;9.478;2024-03-02T14:44:29;16.20;98.90
2993;DHT22;1506;48.932;9.478;2024-03-02T14:46:56;16.20;96.00
2993;DHT22;1506;48.932;9.478;2024-03-02T14:49:26;16.50;93.20
2993;DHT22;1506;48.932;9.478;2024-03-02T14:51:53;16.40;92.80
2993;DHT22;1506;48.932;9.478;2024-03-02T14:54:21;16.20;94.90
2993;DHT22;1506;48.932;9.478;2024-03-02T14:56:48;16.20;99.90
2993;DHT22;1506;48.932;9.478;2024-03-02T14:59:16;16.20;67.70
2993;DHT22;1506;48.932;9.478;2024-03-02T15:01:44;16.10;45.60
2993;DHT22;1506;48.932;9.478;2024-03-02T15:04:11;16.00;43.20
2993;DHT22;1506;48.932;9.478;2024-03-02T15:06:38;16.10;41.90
2993;DHT22;1506;48.932;9.478;2024-03-02T15:09:05;16.00;40.60
2993;DHT22;1506;48.932;9.478;2024-03-02T15:11:33;16.00;38.00
2993;DHT22;1506;48.932;9.478;2024-03-02T15:14:01;16.10;24.00
2993;DHT22;1506;48.932;9.478;2024-03-02T15:16:30;15.70;18.10
2993;DHT22;1506;48.932;9.478;2024-03-02T15:18:58;15.60;18.20
2993;DHT22;1506;48.932;9.478;2024-03-02T15:21:24;15.50;16.90
2993;DHT22;1506;48.932;9.478;2024-03-02T15:23:52;15.40;14.80
2993;DHT22;1506;48.932;9.478;2024-03-02T15:26:19;15.30;11.00
2993;DHT22;1506;48.932;9.478;2024-03-02T15:28:46;15.30;12.20
2993;DHT22;1506;48.932;9.478;2024-03-02T15:31:13;15.30;12.30
2993;DHT22;1506;48.932;9.478;2024-03-02T15:33:41;15.30;12.30
2993;DHT22;1506;48.932;9.478;2024-03-02T15:36:08;15.30;10.50
2993;DHT22;1506;48.932;9.478;2024-03-02T15:38:35;15.30;9.90
2993;DHT22;1506;48.932;9.478;2024-03-02T15:41:08;15.20;8.70
2993;DHT22;1506;48.932;9.478;2024-03-02T15:43:35;15.00;6.90
2993;DHT22;1506;48.932;9.478;2024-03-02T15:46:05;14.90;6.00
2993;DHT22;1506;48.932;9.478;2024-03-02T15:48:33;14.80;2.30
2993;DHT22;1506;48.932;9.478;2024-03-02T15:51:00;14.70;1.00
2993;DHT22;1506;48.932;9.478;2024-03-02T15:53:31;14.60;1.00
2993;DHT22;1506;48.932;9.478;2024-03-02T15:55:59;14.40;1.00
2993;DHT22;1506;48.932;9.478;2024-03-02T15:58:27;14.30;1.00
2993;DHT22;1506;48.932;9.478;2024-03-02T16:00:54;14.20;2.70
2993;DHT22;1506;48.932;9.478;2024-03-02T16:03:21;14.20;4.90
2993;DHT22;1506;48.932;9.478;2024-03-02T16:05:48;14.10;5.60
2993;DHT22;1506;48.932;9.478;2024-03-02T16:08:15;14.00;8.70
2993;DHT22;1506;48.932;9.478;2024-03-02T16:10:42;13.80;11.20
2993;DHT22;1506;48.932;9.478;2024-03-02T16:13:09;13.70;15.60
2993;DHT22;1506;48.932;9.478;2024-03-02T16:15:36;13.60;17.60
2993;DHT22;1506;48.932;9.478;2024-03-02T16:18:04;13.50;22.70
2993;DHT22;1506;48.932;9.478;2024-03-02T16:20:31;13.40;27.00
2993;DHT22;1506;48.932;9.478;2024-03-02T16:22:58;13.40;30.40
2993;DHT22;1506;48.932;9.478;2024-03-02T16:25:25;13.40;36.10
2993;DHT22;1506;48.932;9.478;2024-03-02T16:27:52;13.40;40.90